createdAt,value
2022-10-03T00:01:17.545Z,21.00
2022-10-03T00:03:57.983Z,21.00
2022-10-03T00:06:37.473Z,21.00
2022-10-03T00:09:19.837Z,21.00
2022-10-03T00:12:03.527Z,20.90
2022-10-03T00:14:43.468Z,20.90
2022-10-03T00:17:19.929Z,20.90
2022-10-03T00:19:59.783Z,20.80
2022-10-03T00:22:37.735Z,20.80
2022-10-03T00:25:24.395Z,20.80
2022-10-03T00:28:09.273Z,20.70
2022-10-03T00:31:00.125Z,20.70
2022-10-03T00:33:40.270Z,20.60
2022-10-03T00:36:14.893Z,20.70
2022-10-03T00:39:08.366Z,20.60
2022-10-03T00:42:13.809Z,20.50
2022-10-03T00:45:13.570Z,20.60
2022-10-03T00:48:03.801Z,20.70
2022-10-03T00:50:56.138Z,20.70
2022-10-03T00:53:42.197Z,20.50
2022-10-03T00:56:36.823Z,20.60
2022-10-03T00:59:23.186Z,20.60
2022-10-03T01:01:53.630Z,20.60
2022-10-03T01:04:45.699Z,20.70
2022-10-03T01:07:28.700Z,20.50
2022-10-03T01:10:11.314Z,20.40
2022-10-03T01:12:55.916Z,20.40
2022-10-03T01:15:35.380Z,20.50
2022-10-03T01:18:29.366Z,20.60
2022-10-03T01:21:06.125Z,20.60
2022-10-03T01:24:05.222Z,20.40
2022-10-03T01:26:57.585Z,20.50
2022-10-03T01:29:57.638Z,20.60
2022-10-03T01:32:33.117Z,20.60
2022-10-03T01:35:13.604Z,20.60
2022-10-03T01:37:56.149Z,20.50
2022-10-03T01:40:30.831Z,20.50
2022-10-03T01:43:06.626Z,20.50
2022-10-03T01:45:56.552Z,20.50
2022-10-03T01:48:37.213Z,20.40
2022-10-03T01:51:12.362Z,20.40
2022-10-03T01:53:54.597Z,20.40
2022-10-03T01:56:34.435Z,20.30
2022-10-03T01:59:09.081Z,20.20
2022-10-03T02:01:49.353Z,20.30
2022-10-03T02:04:31.345Z,20.20
2022-10-03T02:07:09.581Z,20.20
2022-10-03T02:09:49.996Z,20.20
2022-10-03T02:12:29.397Z,19.90
2022-10-03T02:15:03.566Z,20.00
2022-10-03T02:17:50.210Z,20.10
2022-10-03T02:20:28.372Z,20.10
2022-10-03T02:22:59.423Z,20.00
2022-10-03T02:25:42.747Z,19.90
2022-10-03T02:28:32.620Z,19.90
2022-10-03T02:31:37.581Z,19.90
2022-10-03T02:35:03.763Z,20.10
2022-10-03T02:37:57.209Z,20.10
2022-10-03T02:41:03.668Z,20.10
2022-10-03T02:44:23.453Z,20.20
2022-10-03T02:47:35.705Z,20.20
2022-10-03T02:50:42.635Z,20.20
2022-10-03T02:53:48.508Z,20.20
2022-10-03T02:56:51.531Z,20.30
2022-10-03T02:59:51.348Z,20.30
2022-10-03T03:03:06.469Z,20.20
2022-10-03T03:06:04.991Z,20.20
2022-10-03T03:09:06.100Z,20.30
2022-10-03T03:12:05.569Z,20.30
2022-10-03T03:15:09.897Z,20.30
2022-10-03T03:17:45.880Z,20.40
2022-10-03T03:20:41.527Z,20.30
2022-10-03T03:23:30.903Z,20.30
2022-10-03T03:29:02.295Z,20.30
2022-10-03T03:31:38.101Z,20.10
2022-10-03T03:34:15.431Z,20.10
2022-10-03T03:36:52.894Z,20.10
2022-10-03T03:39:39.736Z,19.90
2022-10-03T03:42:34.527Z,20.10
2022-10-03T03:45:39.026Z,20.10
2022-10-03T03:48:26.139Z,20.10
2022-10-03T03:51:13.188Z,20.10
2022-10-03T03:54:08.065Z,20.10
2022-10-03T03:57:12.579Z,20.20
2022-10-03T04:00:05.313Z,20.20
2022-10-03T04:02:55.335Z,20.10
2022-10-03T04:05:44.082Z,20.10
2022-10-03T04:08:31.290Z,20.30
2022-10-03T04:11:12.455Z,20.20
2022-10-03T04:14:09.963Z,20.30
2022-10-03T04:17:13.822Z,20.30
2022-10-03T04:19:57.271Z,20.40
2022-10-03T04:22:40.638Z,20.40
2022-10-03T04:25:27.038Z,20.30
2022-10-03T04:28:22.928Z,20.30
2022-10-03T04:31:06.803Z,20.20
2022-10-03T04:33:49.377Z,20.10
2022-10-03T04:36:56.438Z,20.10
2022-10-03T04:39:36.004Z,20.10
2022-10-03T04:42:14.338Z,20.20
2022-10-03T04:44:56.801Z,20.20
2022-10-03T04:47:30.095Z,20.20
2022-10-03T04:50:08.873Z,20.20
2022-10-03T04:52:45.390Z,20.20
2022-10-03T04:55:25.385Z,20.10
2022-10-03T04:58:05.059Z,20.00
2022-10-03T05:00:42.055Z,20.10
2022-10-03T05:03:22.584Z,20.00
2022-10-03T05:05:56.568Z,19.90
2022-10-03T05:08:37.483Z,19.80
2022-10-03T05:11:18.991Z,19.80
2022-10-03T05:14:02.513Z,19.70
2022-10-03T05:16:42.497Z,19.70
2022-10-03T05:19:34.704Z,19.70
2022-10-03T05:22:10.606Z,19.70
2022-10-03T05:24:51.033Z,19.60
2022-10-03T05:27:33.886Z,19.70
2022-10-03T05:30:09.175Z,19.80
2022-10-03T05:32:43.757Z,19.90
2022-10-03T05:35:26.499Z,19.90
2022-10-03T05:38:28.128Z,20.00
2022-10-03T05:41:06.681Z,19.80
2022-10-03T05:43:48.774Z,19.80
2022-10-03T05:46:30.682Z,19.70
2022-10-03T05:49:09.205Z,19.60
2022-10-03T05:51:58.063Z,19.50
2022-10-03T05:55:08.915Z,19.60
2022-10-03T05:58:15.290Z,19.70
2022-10-03T06:01:13.479Z,19.80
2022-10-03T06:04:05.726Z,19.70
2022-10-03T06:06:52.452Z,19.70
2022-10-03T06:10:04.584Z,19.50
2022-10-03T06:12:40.490Z,19.70
2022-10-03T06:15:22.202Z,19.80
2022-10-03T06:18:15.833Z,19.70
2022-10-03T06:21:19.470Z,19.70
2022-10-03T06:24:22.668Z,19.80
2022-10-03T06:27:27.196Z,19.90
2022-10-03T06:30:12.617Z,19.90
2022-10-03T06:33:21.835Z,20.00
2022-10-03T06:36:32.749Z,20.20
2022-10-03T06:39:38.859Z,20.30
2022-10-03T06:42:46.495Z,20.40
2022-10-03T06:45:59.082Z,20.40
2022-10-03T06:49:01.317Z,20.40
2022-10-03T06:51:54.751Z,20.40
2022-10-03T06:55:07.214Z,20.40
2022-10-03T06:58:04.887Z,20.40
2022-10-03T07:00:50.236Z,20.50
2022-10-03T07:04:03.833Z,20.50
2022-10-03T07:07:05.359Z,20.60
2022-10-03T07:10:10.196Z,20.70
2022-10-03T07:13:11.869Z,20.70
2022-10-03T07:16:26.024Z,20.80
2022-10-03T07:19:26.316Z,20.80
2022-10-03T07:22:33.164Z,21.10
2022-10-03T07:25:36.244Z,21.20
2022-10-03T07:28:52.490Z,21.20
2022-10-03T07:31:39.707Z,21.20
2022-10-03T07:34:52.517Z,21.10
2022-10-03T07:37:55.859Z,21.20
2022-10-03T07:40:53.536Z,21.30
2022-10-03T07:43:56.565Z,21.30
2022-10-03T07:47:06.125Z,21.40
2022-10-03T07:50:05.784Z,21.50
2022-10-03T07:53:01.252Z,21.60
2022-10-03T07:55:43.692Z,21.80
2022-10-03T07:58:46.758Z,21.90
2022-10-03T08:01:39.913Z,21.90
2022-10-03T08:04:49.823Z,22.00
2022-10-03T08:07:48.949Z,22.00
2022-10-03T08:10:35.303Z,21.90
2022-10-03T08:13:25.093Z,21.80
2022-10-03T08:16:10.958Z,21.90
2022-10-03T08:19:21.684Z,21.80
2022-10-03T08:22:04.602Z,21.80
2022-10-03T08:25:02.956Z,21.90
2022-10-03T08:27:45.140Z,21.90
2022-10-03T08:30:25.526Z,22.20
2022-10-03T08:33:28.783Z,22.20
2022-10-03T08:36:36.438Z,22.10
2022-10-03T08:39:21.755Z,22.10
2022-10-03T08:42:28.914Z,22.20
2022-10-03T08:45:32.098Z,22.30
2022-10-03T08:48:54.337Z,22.50
2022-10-03T08:51:57.364Z,22.60
2022-10-03T08:54:57.711Z,22.40
2022-10-03T08:57:59.813Z,22.50
2022-10-03T09:00:38.127Z,22.70
2022-10-03T09:03:43.309Z,22.60
2022-10-03T09:07:16.180Z,22.50
2022-10-03T09:10:19.501Z,22.40
2022-10-03T09:13:21.579Z,22.40
2022-10-03T09:16:18.527Z,22.70
2022-10-03T09:19:06.766Z,22.80
2022-10-03T09:22:04.642Z,22.70
2022-10-03T09:25:16.028Z,23.00
2022-10-03T09:28:28.567Z,23.20
2022-10-03T09:31:17.408Z,23.30
2022-10-03T09:34:37.735Z,23.40
2022-10-03T09:37:41.510Z,23.40
2022-10-03T09:40:35.474Z,23.50
2022-10-03T09:43:34.163Z,23.50
2022-10-03T09:46:46.470Z,23.50
2022-10-03T09:50:07.385Z,23.50
2022-10-03T09:52:57.014Z,23.50
2022-10-03T09:55:42.030Z,23.50
2022-10-03T09:58:53.976Z,23.30
2022-10-03T10:01:32.230Z,23.50
2022-10-03T10:04:54.679Z,23.70
2022-10-03T10:07:48.408Z,23.60
2022-10-03T10:10:59.019Z,23.80
2022-10-03T10:14:13.041Z,24.00
2022-10-03T10:17:26.552Z,24.10
2022-10-03T10:20:10.400Z,24.30
2022-10-03T10:23:18.081Z,24.50
2022-10-03T10:26:12.106Z,24.20
2022-10-03T10:29:34.649Z,24.00
2022-10-03T10:32:48.460Z,24.20
2022-10-03T10:36:07.623Z,24.10
2022-10-03T10:39:18.490Z,24.70
2022-10-03T10:42:50.725Z,25.00
2022-10-03T10:45:54.251Z,25.20
2022-10-03T10:49:08.756Z,25.10
2022-10-03T10:52:14.179Z,24.80
2022-10-03T10:55:21.674Z,25.00
2022-10-03T10:58:23.925Z,24.80
2022-10-03T11:01:24.439Z,24.80
2022-10-03T11:04:26.678Z,24.80
2022-10-03T11:07:28.724Z,24.60
2022-10-03T11:10:33.910Z,24.80
2022-10-03T11:13:50.746Z,25.10
2022-10-03T11:16:50.816Z,25.00
2022-10-03T11:19:58.688Z,24.80
2022-10-03T11:23:15.755Z,24.70
2022-10-03T11:26:42.022Z,24.90
2022-10-03T11:29:53.697Z,24.90
2022-10-03T11:32:54.310Z,25.50
2022-10-03T11:35:59.622Z,25.60
2022-10-03T11:38:34.150Z,25.30
2022-10-03T11:41:15.316Z,25.60
2022-10-03T11:44:07.798Z,25.60
2022-10-03T11:47:04.139Z,25.50
2022-10-03T11:50:13.604Z,25.30
2022-10-03T11:52:58.694Z,25.60
2022-10-03T11:55:35.120Z,25.20
2022-10-03T11:58:26.856Z,25.20
2022-10-03T12:01:08.361Z,25.40
2022-10-03T12:03:43.453Z,25.70
2022-10-03T12:06:37.134Z,25.60
2022-10-03T12:09:17.145Z,25.60
2022-10-03T12:11:57.137Z,25.60
2022-10-03T12:14:29.752Z,25.60
2022-10-03T12:17:12.560Z,25.60
2022-10-03T12:19:52.367Z,25.40
2022-10-03T12:22:34.704Z,25.50
2022-10-03T12:25:16.725Z,25.70
2022-10-03T12:28:04.090Z,25.60
2022-10-03T12:30:47.393Z,25.90
2022-10-03T12:33:32.999Z,25.90
2022-10-03T12:36:10.053Z,25.70
2022-10-03T12:38:57.641Z,25.50
2022-10-03T12:41:58.876Z,25.30
2022-10-03T12:44:42.542Z,25.50
2022-10-03T12:47:51.097Z,25.50
2022-10-03T12:50:31.486Z,25.60
2022-10-03T12:53:24.002Z,25.40
2022-10-03T12:56:08.473Z,25.80
2022-10-03T12:58:48.802Z,26.10
2022-10-03T13:01:28.951Z,26.30
2022-10-03T13:04:00.686Z,26.30
2022-10-03T13:07:03.225Z,26.10
2022-10-03T13:10:01.085Z,25.80
2022-10-03T13:12:39.396Z,25.80
2022-10-03T13:15:41.955Z,25.60
2022-10-03T13:18:29.298Z,25.60
2022-10-03T13:21:26.699Z,25.50
2022-10-03T13:24:01.585Z,25.50
2022-10-03T13:26:45.185Z,25.40
2022-10-03T13:29:24.048Z,25.40
2022-10-03T13:32:06.093Z,25.70
2022-10-03T13:34:43.023Z,25.70
2022-10-03T13:37:22.390Z,25.50
2022-10-03T13:39:53.923Z,25.40
2022-10-03T13:42:33.834Z,25.40
2022-10-03T13:45:07.074Z,25.30
2022-10-03T13:47:47.641Z,25.30
2022-10-03T13:50:23.630Z,25.00
2022-10-03T13:52:57.689Z,24.90
2022-10-03T13:55:42.559Z,24.70
2022-10-03T13:58:33.054Z,24.70
2022-10-03T14:01:28.323Z,24.60
2022-10-03T14:04:26.172Z,24.60
2022-10-03T14:07:01.048Z,24.60
2022-10-03T14:09:41.717Z,24.50
2022-10-03T14:12:38.059Z,24.30
2022-10-03T14:15:24.825Z,24.40
2022-10-03T14:18:01.280Z,24.60
2022-10-03T14:20:36.087Z,24.50
2022-10-03T14:23:25.185Z,24.50
2022-10-03T14:26:01.597Z,24.60
2022-10-03T14:28:39.413Z,24.80
2022-10-03T14:31:15.308Z,24.90
2022-10-03T14:33:48.826Z,25.00
2022-10-03T14:36:31.754Z,25.00
2022-10-03T14:39:22.219Z,24.90
2022-10-03T14:42:20.123Z,25.30
2022-10-03T14:44:55.219Z,25.70
2022-10-03T14:47:25.067Z,26.40
2022-10-03T14:49:59.459Z,26.90
2022-10-03T14:52:38.214Z,27.00
2022-10-03T14:55:15.485Z,27.00
2022-10-03T14:58:09.173Z,26.80
2022-10-03T15:00:44.004Z,27.00
2022-10-03T15:03:30.768Z,27.20
2022-10-03T15:06:03.438Z,27.10
2022-10-03T15:08:39.593Z,26.80
2022-10-03T15:11:13.105Z,26.80
2022-10-03T15:13:47.040Z,26.20
2022-10-03T15:16:19.397Z,26.30
2022-10-03T15:18:55.426Z,26.30
2022-10-03T15:21:26.129Z,26.00
2022-10-03T15:24:00.550Z,26.10
2022-10-03T15:26:36.081Z,26.20
2022-10-03T15:29:08.816Z,26.00
2022-10-03T15:31:40.251Z,25.60
2022-10-03T15:34:18.225Z,25.20
2022-10-03T15:36:51.460Z,25.00
2022-10-03T15:39:24.533Z,25.10
2022-10-03T15:42:00.097Z,25.30
2022-10-03T15:44:33.989Z,25.10
2022-10-03T15:47:07.866Z,25.20
2022-10-03T15:49:41.393Z,25.10
2022-10-03T15:52:18.745Z,24.80
2022-10-03T15:54:49.972Z,24.80
2022-10-03T15:57:24.341Z,24.40
2022-10-03T16:00:02.038Z,24.40
2022-10-03T16:02:43.691Z,24.40
2022-10-03T16:05:21.327Z,24.50
2022-10-03T16:07:59.277Z,24.30
2022-10-03T16:10:32.127Z,24.30
2022-10-03T16:13:08.748Z,24.30
2022-10-03T16:16:02.773Z,24.20
2022-10-03T16:18:48.511Z,24.20
2022-10-03T16:21:31.485Z,24.20
2022-10-03T16:24:03.318Z,24.20
2022-10-03T16:26:36.829Z,24.20
2022-10-03T16:29:14.519Z,24.00
2022-10-03T16:31:50.688Z,23.80
2022-10-03T16:34:23.013Z,23.80
2022-10-03T16:36:52.703Z,23.70
2022-10-03T16:39:25.606Z,23.60
2022-10-03T16:41:56.484Z,23.60
2022-10-03T16:44:34.285Z,23.60
2022-10-03T16:47:05.696Z,23.50
2022-10-03T16:50:01.272Z,23.50
2022-10-03T16:52:35.729Z,23.40
2022-10-03T16:55:08.825Z,23.30
2022-10-03T16:57:45.801Z,23.30
2022-10-03T17:00:24.218Z,23.20
2022-10-03T17:02:56.252Z,23.20
2022-10-03T17:05:25.977Z,23.30
2022-10-03T17:08:06.710Z,23.40
2022-10-03T17:10:43.606Z,23.40
2022-10-03T17:13:16.563Z,23.30
2022-10-03T17:15:53.940Z,23.20
2022-10-03T17:18:27.671Z,23.30
2022-10-03T17:21:02.443Z,23.20
2022-10-03T17:23:37.044Z,23.10
2022-10-03T17:26:11.059Z,23.10
2022-10-03T17:28:45.232Z,23.00
2022-10-03T17:31:30.624Z,23.10
2022-10-03T17:34:12.866Z,23.10
2022-10-03T17:37:16.543Z,23.00
2022-10-03T17:39:58.899Z,23.00
2022-10-03T17:42:40.172Z,23.00
2022-10-03T17:45:35.321Z,23.00
2022-10-03T17:48:15.955Z,23.00
2022-10-03T17:50:59.300Z,22.90
2022-10-03T17:53:31.042Z,22.80
2022-10-03T17:56:05.663Z,22.90
2022-10-03T17:58:35.744Z,22.90
2022-10-03T18:01:12.159Z,22.80
2022-10-03T18:03:50.350Z,22.80
2022-10-03T18:06:39.796Z,22.70
2022-10-03T18:09:19.527Z,22.80
2022-10-03T18:11:51.548Z,22.80
2022-10-03T18:14:31.661Z,22.80
2022-10-03T18:17:08.447Z,22.60
2022-10-03T18:19:56.317Z,22.70
2022-10-03T18:22:34.263Z,22.60
2022-10-03T18:25:33.562Z,22.50
2022-10-03T18:28:23.133Z,22.60
2022-10-03T18:30:58.079Z,22.50
2022-10-03T18:33:33.558Z,22.60
2022-10-03T18:36:12.417Z,22.60
2022-10-03T18:38:47.940Z,22.70
2022-10-03T18:41:19.464Z,22.70
2022-10-03T18:43:59.205Z,22.60
2022-10-03T18:46:31.955Z,22.50
2022-10-03T18:52:00.599Z,22.50
2022-10-03T18:54:38.864Z,22.50
2022-10-03T18:57:16.200Z,22.50
2022-10-03T18:59:55.418Z,22.60
2022-10-03T19:02:30.890Z,22.70
2022-10-03T19:05:09.558Z,22.50
2022-10-03T19:07:49.198Z,22.50
2022-10-03T19:10:43.253Z,22.40
2022-10-03T19:13:21.378Z,22.30
2022-10-03T19:16:16.888Z,22.30
2022-10-03T19:18:57.605Z,22.20
2022-10-03T19:21:26.743Z,22.00
2022-10-03T19:24:05.356Z,22.10
2022-10-03T19:26:37.349Z,22.20
2022-10-03T19:29:09.787Z,22.20
2022-10-03T19:31:42.986Z,22.20
2022-10-03T19:34:19.883Z,22.30
2022-10-03T19:36:51.721Z,22.20
2022-10-03T19:39:24.599Z,22.20
2022-10-03T19:41:56.370Z,22.10
2022-10-03T19:44:28.022Z,22.10
2022-10-03T19:47:14.270Z,22.00
2022-10-03T19:49:54.104Z,22.00
2022-10-03T19:52:28.122Z,22.00
2022-10-03T19:55:02.717Z,22.00
2022-10-03T19:57:41.271Z,22.00
2022-10-03T20:00:23.476Z,22.00
2022-10-03T20:03:08.167Z,21.90
2022-10-03T20:06:01.469Z,21.70
2022-10-03T20:08:37.659Z,21.80
2022-10-03T20:11:22.692Z,21.80
2022-10-03T20:13:52.792Z,21.70
2022-10-03T20:16:24.426Z,21.80
2022-10-03T20:18:57.744Z,21.70
2022-10-03T20:21:30.108Z,21.90
2022-10-03T20:24:00.030Z,21.70
2022-10-03T20:26:36.721Z,21.60
2022-10-03T20:29:26.529Z,21.70
2022-10-03T20:32:01.574Z,21.70
2022-10-03T20:34:31.768Z,21.70
2022-10-03T20:37:24.289Z,21.70
2022-10-03T20:39:56.987Z,21.70
2022-10-03T20:42:31.398Z,21.70
2022-10-03T20:45:04.763Z,21.70
2022-10-03T20:47:53.321Z,21.70
2022-10-03T20:50:26.838Z,21.70
2022-10-03T20:52:59.144Z,21.70
2022-10-03T20:55:31.345Z,21.70
2022-10-03T20:58:14.471Z,21.70
2022-10-03T21:00:48.273Z,21.70
2022-10-03T21:03:27.703Z,21.60
2022-10-03T21:05:58.801Z,21.50
2022-10-03T21:08:31.076Z,21.50
2022-10-03T21:11:02.431Z,21.50
2022-10-03T21:13:37.649Z,21.50
2022-10-03T21:16:18.141Z,21.50
2022-10-03T21:18:49.363Z,21.50
2022-10-03T21:21:24.823Z,21.50
2022-10-03T21:23:58.718Z,21.50
2022-10-03T21:26:32.020Z,21.40
2022-10-03T21:29:30.606Z,21.50
2022-10-03T21:32:16.091Z,21.40
2022-10-03T21:34:52.745Z,21.40
2022-10-03T21:37:28.443Z,21.40
2022-10-03T21:40:10.589Z,21.40
2022-10-03T21:42:48.172Z,21.40
2022-10-03T21:45:27.980Z,21.40
2022-10-03T21:48:02.578Z,21.40
2022-10-03T21:50:41.565Z,21.40
2022-10-03T21:53:21.800Z,21.40
2022-10-03T21:56:16.756Z,21.30
2022-10-03T21:59:06.151Z,21.20
2022-10-03T22:01:43.767Z,21.20
2022-10-03T22:04:21.906Z,21.20
2022-10-03T22:06:56.737Z,21.20
2022-10-03T22:09:25.711Z,21.10
2022-10-03T22:11:58.978Z,21.10
2022-10-03T22:14:36.863Z,20.90
2022-10-03T22:17:17.172Z,21.10
2022-10-03T22:19:50.831Z,21.10
2022-10-03T22:22:37.441Z,21.10
2022-10-03T22:25:27.373Z,21.00
2022-10-03T22:28:04.087Z,21.00
2022-10-03T22:30:39.568Z,20.90
2022-10-03T22:33:18.875Z,21.00
2022-10-03T22:35:51.561Z,20.90
2022-10-03T22:38:24.527Z,20.90
2022-10-03T22:40:55.735Z,21.00
2022-10-03T22:43:25.613Z,20.90
2022-10-03T22:45:57.050Z,20.90
2022-10-03T22:48:31.378Z,20.90
2022-10-03T22:51:02.041Z,20.90
2022-10-03T22:53:35.852Z,20.90
2022-10-03T22:56:42.631Z,20.90
2022-10-03T22:59:14.956Z,20.90
2022-10-03T23:01:47.041Z,20.80
2022-10-03T23:04:24.759Z,20.80
2022-10-03T23:07:13.046Z,20.80
2022-10-03T23:09:51.394Z,20.80
2022-10-03T23:12:24.045Z,20.70
2022-10-03T23:14:55.093Z,20.70
2022-10-03T23:17:40.405Z,20.70
2022-10-03T23:20:16.877Z,20.70
2022-10-03T23:22:50.687Z,20.70
2022-10-03T23:25:25.876Z,20.70
2022-10-03T23:28:09.003Z,20.80
2022-10-03T23:30:55.960Z,20.80
2022-10-03T23:33:58.424Z,20.80
2022-10-03T23:36:32.114Z,20.70
2022-10-03T23:39:02.374Z,20.70
2022-10-03T23:42:04.260Z,20.70
2022-10-03T23:44:49.220Z,20.60
2022-10-03T23:47:22.174Z,20.60
2022-10-03T23:49:52.985Z,20.60
2022-10-03T23:52:27.823Z,20.60
2022-10-03T23:55:00.016Z,20.60
2022-10-03T23:57:35.600Z,20.70
